Time;durP1;ratioP1;P1;durP2;ratioP2;P2;SDS_P1;SDS_P2;PMS_P1;PMS_P2;Temp;Humidity;BMP_temperature;BMP_pressure;BME280_temperature;BME280_humidity;BME280_pressure;Samples;Min_cycle;Max_cycle;Signal;HPM_P1;HPM_P2
2023/09/20 00:00:51;;;;;;;12.07;7.93;;;;;;;;;;5080555;28;20395;-77
2023/09/20 00:03:19;;;;;;;10.68;8.27;;;;;;;;;;5070698;28;20024;-77
2023/09/20 00:05:45;;;;;;;9.25;7.50;;;;;;;;;;5070982;28;20077;-76
2023/09/20 00:08:10;;;;;;;12.05;9.13;;;;;;;;;;5080298;28;20118;-77
2023/09/20 00:10:37;;;;;;;12.55;8.85;;;;;;;;;;5083293;28;20411;-76
2023/09/20 00:13:02;;;;;;;11.60;7.72;;;;;;;;;;5081536;28;20052;-77
2023/09/20 00:15:30;;;;;;;13.38;8.60;;;;;;;;;;5083584;28;20055;-78
2023/09/20 00:17:55;;;;;;;12.00;8.00;;;;;;;;;;5081973;28;20471;-78
2023/09/20 00:20:21;;;;;;;12.10;8.27;;;;;;;;;;5083471;28;20028;-78
2023/09/20 00:22:47;;;;;;;12.95;7.38;;;;;;;;;;5083433;28;20393;-77
2023/09/20 00:25:13;;;;;;;10.35;7.32;;;;;;;;;;5082525;28;20038;-79
2023/09/20 00:27:40;;;;;;;10.25;7.38;;;;;;;;;;5082865;28;20347;-78
2023/09/20 00:30:10;;;;;;;11.82;7.80;;;;;;;;;;5081975;28;20043;-79
2023/09/20 00:32:39;;;;;;;13.80;7.50;;;;;;;;;;5081117;28;20752;-78
2023/09/20 00:35:06;;;;;;;9.38;7.10;;;;;;;;;;5083002;28;20447;-79
2023/09/20 00:37:32;;;;;;;8.73;6.97;;;;;;;;;;5082320;28;20104;-78
2023/09/20 00:39:57;;;;;;;11.20;7.25;;;;;;;;;;5082451;28;20024;-77
2023/09/20 00:42:23;;;;;;;10.00;6.63;;;;;;;;;;5080259;28;20059;-78
2023/09/20 00:44:48;;;;;;;8.50;6.00;;;;;;;;;;5083152;28;20463;-78
2023/09/20 00:47:14;;;;;;;8.23;6.45;;;;;;;;;;5081387;28;20077;-80
2023/09/20 00:49:41;;;;;;;11.25;5.85;;;;;;;;;;5069746;28;20088;-80
2023/09/20 00:52:06;;;;;;;13.95;6.28;;;;;;;;;;5082720;28;20066;-79
2023/09/20 00:54:33;;;;;;;10.98;6.78;;;;;;;;;;5082204;28;20131;-79
2023/09/20 00:56:58;;;;;;;13.02;6.68;;;;;;;;;;5082722;28;20024;-80
2023/09/20 00:59:24;;;;;;;7.97;6.65;;;;;;;;;;5082818;28;20028;-79
2023/09/20 01:01:49;;;;;;;15.30;6.55;;;;;;;;;;5080383;28;20028;-81
2023/09/20 01:04:14;;;;;;;13.13;6.40;;;;;;;;;;5081766;28;20035;-79
2023/09/20 01:06:41;;;;;;;11.23;6.95;;;;;;;;;;5084606;28;20366;-78
2023/09/20 01:09:07;;;;;;;8.27;6.97;;;;;;;;;;5085191;28;20791;-77
2023/09/20 01:11:34;;;;;;;13.02;7.38;;;;;;;;;;5085672;28;20016;-82
2023/09/20 01:13:59;;;;;;;9.60;6.10;;;;;;;;;;5084362;28;20742;-78
2023/09/20 01:16:24;;;;;;;13.57;6.60;;;;;;;;;;5086863;28;20429;-78
2023/09/20 01:18:50;;;;;;;11.13;5.95;;;;;;;;;;5084191;28;20123;-78
2023/09/20 01:21:16;;;;;;;9.50;6.20;;;;;;;;;;5074694;28;20024;-78
2023/09/20 01:23:44;;;;;;;8.23;5.97;;;;;;;;;;5088392;28;20147;-77
2023/09/20 01:26:11;;;;;;;10.65;6.93;;;;;;;;;;5071858;28;20389;-78
2023/09/20 01:28:37;;;;;;;9.88;6.50;;;;;;;;;;5098269;27;20090;-76
2023/09/20 01:31:05;;;;;;;13.68;6.78;;;;;;;;;;5086748;28;20098;-76
2023/09/20 01:33:31;;;;;;;10.35;6.20;;;;;;;;;;5085853;28;20038;-78
2023/09/20 01:35:58;;;;;;;10.05;6.38;;;;;;;;;;5104579;27;20091;-77
2023/09/20 01:38:26;;;;;;;13.45;6.82;;;;;;;;;;5096323;27;20334;-77
2023/09/20 01:40:55;;;;;;;14.07;6.60;;;;;;;;;;5097691;27;20038;-77
2023/09/20 01:43:22;;;;;;;11.38;6.40;;;;;;;;;;5104051;27;20043;-77
2023/09/20 01:45:47;;;;;;;7.55;6.57;;;;;;;;;;5103263;27;20028;-77
2023/09/20 01:48:13;;;;;;;9.95;5.70;;;;;;;;;;5103309;27;20020;-77
2023/09/20 01:50:41;;;;;;;8.73;5.80;;;;;;;;;;5103097;28;20039;-78
2023/09/20 01:53:09;;;;;;;9.07;6.32;;;;;;;;;;5087242;28;20067;-78
2023/09/20 01:55:37;;;;;;;9.40;6.72;;;;;;;;;;5086754;28;20035;-78
2023/09/20 01:58:06;;;;;;;14.25;5.97;;;;;;;;;;5083474;28;20075;-77
2023/09/20 02:00:36;;;;;;;7.53;5.72;;;;;;;;;;5084494;28;20024;-77
2023/09/20 02:03:13;;;;;;;6.80;5.40;;;;;;;;;;5085223;28;20119;-75
2023/09/20 02:05:38;;;;;;;8.95;6.57;;;;;;;;;;5074581;28;20036;-76
2023/09/20 02:08:04;;;;;;;8.07;6.03;;;;;;;;;;5082997;28;20470;-78
2023/09/20 02:10:31;;;;;;;8.20;6.68;;;;;;;;;;5085019;28;20710;-79
2023/09/20 02:12:56;;;;;;;11.73;5.97;;;;;;;;;;5084899;28;20019;-78
2023/09/20 02:15:23;;;;;;;11.90;5.63;;;;;;;;;;5083529;28;20024;-76
2023/09/20 02:17:50;;;;;;;12.68;6.45;;;;;;;;;;5084053;28;20032;-79
2023/09/20 02:20:23;;;;;;;11.00;6.43;;;;;;;;;;5083137;28;20046;-78
2023/09/20 02:22:49;;;;;;;13.52;6.20;;;;;;;;;;5084123;28;20717;-78
2023/09/20 02:25:20;;;;;;;12.57;6.72;;;;;;;;;;5083958;28;20051;-79
2023/09/20 02:27:46;;;;;;;17.08;5.82;;;;;;;;;;5084556;28;20020;-76
2023/09/20 02:30:15;;;;;;;6.60;6.00;;;;;;;;;;5084473;28;20031;-80
2023/09/20 02:32:40;;;;;;;12.53;6.63;;;;;;;;;;5084713;28;20322;-81
2023/09/20 02:35:06;;;;;;;8.18;6.15;;;;;;;;;;5084634;28;20023;-78
2023/09/20 02:37:32;;;;;;;8.13;5.80;;;;;;;;;;5083031;28;20019;-78
2023/09/20 02:39:57;;;;;;;11.88;6.20;;;;;;;;;;5082767;28;20032;-78
2023/09/20 02:42:24;;;;;;;6.85;6.00;;;;;;;;;;5069361;28;20060;-78
2023/09/20 02:44:51;;;;;;;11.50;6.20;;;;;;;;;;5068958;28;20454;-77
2023/09/20 02:47:18;;;;;;;10.43;5.15;;;;;;;;;;5074122;28;20119;-75
2023/09/20 02:49:44;;;;;;;7.97;5.28;;;;;;;;;;5084060;28;20395;-76
2023/09/20 02:52:10;;;;;;;11.07;6.15;;;;;;;;;;5082309;28;20052;-77
2023/09/20 02:54:36;;;;;;;13.40;5.10;;;;;;;;;;5084307;28;20097;-74
2023/09/20 02:57:01;;;;;;;15.18;5.85;;;;;;;;;;5084438;28;20082;-78
2023/09/20 02:59:26;;;;;;;9.70;5.65;;;;;;;;;;5083401;28;20032;-75
2023/09/20 03:01:52;;;;;;;9.27;5.65;;;;;;;;;;5084121;28;20303;-75
2023/09/20 03:04:18;;;;;;;10.35;6.10;;;;;;;;;;5084683;28;20043;-75
2023/09/20 03:06:44;;;;;;;12.52;5.80;;;;;;;;;;5084755;28;20024;-77
2023/09/20 03:09:10;;;;;;;7.93;5.32;;;;;;;;;;5083908;28;20040;-75
2023/09/20 03:11:37;;;;;;;11.88;5.78;;;;;;;;;;5083027;28;20051;-75
2023/09/20 03:14:03;;;;;;;11.60;5.78;;;;;;;;;;5083112;28;20020;-75
2023/09/20 03:16:28;;;;;;;11.50;6.15;;;;;;;;;;5083061;28;20034;-77
2023/09/20 03:18:55;;;;;;;9.30;5.70;;;;;;;;;;5082032;28;20031;-77
2023/09/20 03:21:20;;;;;;;12.48;6.05;;;;;;;;;;5083995;28;20020;-75
2023/09/20 03:23:45;;;;;;;9.80;5.75;;;;;;;;;;5081316;28;20028;-75
2023/09/20 03:26:13;;;;;;;11.45;6.35;;;;;;;;;;5073605;28;20029;-73
2023/09/20 03:28:39;;;;;;;14.10;6.05;;;;;;;;;;5083322;28;20024;-76
2023/09/20 03:31:10;;;;;;;10.75;5.40;;;;;;;;;;5083795;28;20115;-75
2023/09/20 03:33:36;;;;;;;11.75;6.00;;;;;;;;;;5077883;28;20027;-75
2023/09/20 03:36:04;;;;;;;10.15;5.60;;;;;;;;;;5074131;28;20111;-76
2023/09/20 03:38:29;;;;;;;15.05;6.13;;;;;;;;;;5075710;28;20028;-77
2023/09/20 03:40:54;;;;;;;8.95;6.07;;;;;;;;;;5077951;28;20089;-76
2023/09/20 03:43:20;;;;;;;9.88;6.18;;;;;;;;;;5076862;28;20052;-75
2023/09/20 03:45:45;;;;;;;11.82;6.38;;;;;;;;;;5071989;28;20040;-76
2023/09/20 03:48:11;;;;;;;11.35;5.50;;;;;;;;;;5068776;28;20113;-75
2023/09/20 03:50:38;;;;;;;6.78;5.80;;;;;;;;;;5079079;28;20038;-76
2023/09/20 03:53:04;;;;;;;9.70;5.78;;;;;;;;;;5069903;28;20024;-76
2023/09/20 03:55:30;;;;;;;7.65;5.80;;;;;;;;;;5081775;28;21046;-75
2023/09/20 03:57:56;;;;;;;12.32;5.50;;;;;;;;;;5080236;28;20047;-76
2023/09/20 04:00:31;;;;;;;13.32;5.78;;;;;;;;;;5074500;28;20040;-77
2023/09/20 04:02:56;;;;;;;7.93;5.55;;;;;;;;;;5070685;28;20020;-77
2023/09/20 04:05:22;;;;;;;10.93;6.13;;;;;;;;;;5068408;28;20113;-77
2023/09/20 04:07:48;;;;;;;16.52;6.22;;;;;;;;;;5067579;28;20028;-75
2023/09/20 04:10:18;;;;;;;9.73;5.97;;;;;;;;;;5068073;28;20028;-76
2023/09/20 04:12:48;;;;;;;8.18;5.82;;;;;;;;;;5067554;28;20024;-77
2023/09/20 04:15:15;;;;;;;12.00;6.18;;;;;;;;;;5068472;28;20024;-74
2023/09/20 04:17:40;;;;;;;10.52;6.45;;;;;;;;;;5066890;28;20089;-78
2023/09/20 04:20:07;;;;;;;8.65;6.60;;;;;;;;;;5066747;28;20035;-78
2023/09/20 04:22:34;;;;;;;8.23;6.22;;;;;;;;;;5081586;28;20160;-77
2023/09/20 04:25:00;;;;;;;9.18;6.75;;;;;;;;;;5069838;28;20066;-77
2023/09/20 04:27:25;;;;;;;8.98;6.43;;;;;;;;;;5082833;28;20522;-76
2023/09/20 04:29:52;;;;;;;11.50;6.03;;;;;;;;;;5080948;28;20351;-78
2023/09/20 04:32:18;;;;;;;16.13;6.15;;;;;;;;;;5083871;28;20071;-76
2023/09/20 04:34:43;;;;;;;10.70;6.40;;;;;;;;;;5068557;28;20044;-77
2023/09/20 04:37:09;;;;;;;17.77;6.32;;;;;;;;;;5066553;28;20105;-73
2023/09/20 04:39:34;;;;;;;11.45;5.88;;;;;;;;;;5074028;28;20036;-74
2023/09/20 04:41:59;;;;;;;11.52;5.82;;;;;;;;;;5085690;28;20467;-77
2023/09/20 04:44:25;;;;;;;12.57;7.03;;;;;;;;;;5086208;28;20418;-75
2023/09/20 04:46:50;;;;;;;9.18;7.00;;;;;;;;;;5085621;28;20052;-74
2023/09/20 04:49:15;;;;;;;9.35;6.85;;;;;;;;;;5085978;28;20036;-76
2023/09/20 04:51:42;;;;;;;7.88;6.22;;;;;;;;;;5087582;28;20016;-80
2023/09/20 04:54:08;;;;;;;8.82;7.03;;;;;;;;;;5079970;28;20097;-79
2023/09/20 04:56:33;;;;;;;10.68;6.32;;;;;;;;;;5070314;28;20063;-78
2023/09/20 04:58:59;;;;;;;8.77;6.03;;;;;;;;;;5070737;28;20059;-81
2023/09/20 05:01:24;;;;;;;9.98;6.35;;;;;;;;;;5077081;28;20754;-78
2023/09/20 05:03:50;;;;;;;9.25;6.05;;;;;;;;;;5085110;28;20020;-73
2023/09/20 05:06:20;;;;;;;8.02;5.88;;;;;;;;;;5086920;28;20426;-76
2023/09/20 05:08:45;;;;;;;11.85;6.88;;;;;;;;;;5085679;28;20036;-76
2023/09/20 05:11:13;;;;;;;8.48;5.75;;;;;;;;;;5086537;28;20022;-77
2023/09/20 05:13:38;;;;;;;10.10;6.50;;;;;;;;;;5086593;28;20032;-76
2023/09/20 05:16:04;;;;;;;9.43;7.78;;;;;;;;;;5086092;28;20623;-77
2023/09/20 05:18:29;;;;;;;13.63;8.02;;;;;;;;;;5082638;28;20335;-77
2023/09/20 05:20:55;;;;;;;12.13;6.90;;;;;;;;;;5084294;28;20040;-76
2023/09/20 05:23:20;;;;;;;11.45;7.50;;;;;;;;;;5083203;28;20024;-75
2023/09/20 05:25:48;;;;;;;10.05;7.18;;;;;;;;;;5084758;28;20063;-74
2023/09/20 05:28:15;;;;;;;10.18;8.07;;;;;;;;;;5084318;28;20020;-74
2023/09/20 05:30:41;;;;;;;9.80;7.82;;;;;;;;;;5083474;28;20030;-75
2023/09/20 05:33:07;;;;;;;9.13;7.53;;;;;;;;;;5086510;28;20035;-77
2023/09/20 05:35:32;;;;;;;12.88;7.72;;;;;;;;;;5085242;28;20020;-76
2023/09/20 05:37:59;;;;;;;8.90;7.72;;;;;;;;;;5085713;28;20077;-74
2023/09/20 05:40:27;;;;;;;12.60;7.53;;;;;;;;;;5086865;28;20032;-75
2023/09/20 05:42:53;;;;;;;11.40;7.15;;;;;;;;;;5085254;28;20114;-77
2023/09/20 05:45:23;;;;;;;10.30;7.43;;;;;;;;;;5086502;28;20466;-74
2023/09/20 05:47:49;;;;;;;11.65;7.80;;;;;;;;;;5084829;28;20340;-72
2023/09/20 05:50:15;;;;;;;12.35;7.50;;;;;;;;;;5085162;28;20050;-72
2023/09/20 05:52:43;;;;;;;10.50;8.68;;;;;;;;;;5085133;28;20378;-72
2023/09/20 05:55:11;;;;;;;12.63;8.35;;;;;;;;;;5084614;28;20024;-75
2023/09/20 05:57:37;;;;;;;11.52;8.48;;;;;;;;;;5086011;28;20024;-74
2023/09/20 06:00:04;;;;;;;8.63;7.80;;;;;;;;;;5086226;28;20446;-76
2023/09/20 06:02:29;;;;;;;9.65;8.30;;;;;;;;;;5086247;27;20077;-76
2023/09/20 06:04:54;;;;;;;10.65;7.82;;;;;;;;;;5072990;28;20028;-76
2023/09/20 06:07:20;;;;;;;7.68;6.93;;;;;;;;;;5078697;28;20032;-75
2023/09/20 06:09:45;;;;;;;17.55;7.75;;;;;;;;;;5085635;28;20036;-75
2023/09/20 06:12:11;;;;;;;15.43;7.22;;;;;;;;;;5085895;28;20024;-76
2023/09/20 06:14:36;;;;;;;7.55;6.65;;;;;;;;;;5084477;28;20031;-75
2023/09/20 06:17:02;;;;;;;7.15;6.45;;;;;;;;;;5085145;28;20091;-74
2023/09/20 06:19:30;;;;;;;8.45;5.90;;;;;;;;;;5084944;28;20046;-75
2023/09/20 06:21:56;;;;;;;6.85;5.18;;;;;;;;;;5085853;28;20519;-74
2023/09/20 06:24:21;;;;;;;8.38;5.20;;;;;;;;;;5085181;28;20143;-73
2023/09/20 06:26:46;;;;;;;8.45;5.40;;;;;;;;;;5084613;28;20035;-74
2023/09/20 06:29:12;;;;;;;6.78;5.43;;;;;;;;;;5085173;28;20431;-75
2023/09/20 06:31:38;;;;;;;8.80;5.38;;;;;;;;;;5084072;28;20101;-75
2023/09/20 06:34:04;;;;;;;6.53;5.10;;;;;;;;;;5083514;28;20085;-77
2023/09/20 06:36:29;;;;;;;11.32;4.38;;;;;;;;;;5084648;28;20020;-75
2023/09/20 06:38:54;;;;;;;5.57;4.47;;;;;;;;;;5084743;28;20092;-75
2023/09/20 06:41:20;;;;;;;8.20;4.40;;;;;;;;;;5072128;28;20028;-75
2023/09/20 06:43:46;;;;;;;5.15;4.28;;;;;;;;;;5085367;28;20110;-75
2023/09/20 06:46:11;;;;;;;7.18;4.47;;;;;;;;;;5084468;28;20038;-74
2023/09/20 06:48:37;;;;;;;6.88;4.68;;;;;;;;;;5084881;28;20020;-77
2023/09/20 06:51:03;;;;;;;8.82;4.13;;;;;;;;;;5085535;28;20056;-75
2023/09/20 06:53:29;;;;;;;7.95;5.45;;;;;;;;;;5085340;28;20024;-74
2023/09/20 06:55:54;;;;;;;9.77;5.18;;;;;;;;;;5085463;28;20529;-74
2023/09/20 06:58:21;;;;;;;12.07;4.82;;;;;;;;;;5083901;28;20028;-74
2023/09/20 07:00:47;;;;;;;7.18;4.55;;;;;;;;;;5084945;28;20462;-76
2023/09/20 07:03:12;;;;;;;10.48;5.35;;;;;;;;;;5084779;28;20032;-77
2023/09/20 07:05:37;;;;;;;9.38;4.68;;;;;;;;;;5085090;28;20340;-75
2023/09/20 07:08:04;;;;;;;9.48;5.55;;;;;;;;;;5084740;28;20063;-75
2023/09/20 07:10:31;;;;;;;10.43;5.80;;;;;;;;;;5084810;28;20032;-76
2023/09/20 07:12:57;;;;;;;9.43;5.75;;;;;;;;;;5083342;28;20024;-76
2023/09/20 07:15:25;;;;;;;12.27;6.45;;;;;;;;;;5084524;28;20042;-77
2023/09/20 07:18:08;;;;;;;9.05;5.25;;;;;;;;;;5083317;28;20062;-76
2023/09/20 07:20:34;;;;;;;8.63;4.25;;;;;;;;;;5084423;28;20035;-77
2023/09/20 07:22:59;;;;;;;8.10;4.30;;;;;;;;;;5082142;28;20408;-77
2023/09/20 07:25:27;;;;;;;5.97;4.35;;;;;;;;;;5084581;28;20024;-77
2023/09/20 07:27:55;;;;;;;9.73;7.78;;;;;;;;;;5083087;28;20024;-75
2023/09/20 07:30:22;;;;;;;11.23;6.72;;;;;;;;;;5084654;28;20480;-75
2023/09/20 07:32:49;;;;;;;11.68;5.50;;;;;;;;;;5083132;28;20036;-75
2023/09/20 07:35:26;;;;;;;13.93;5.50;;;;;;;;;;5082982;28;20028;-76
2023/09/20 07:37:58;;;;;;;9.98;5.80;;;;;;;;;;5084606;28;20435;-76
2023/09/20 07:40:29;;;;;;;8.20;5.53;;;;;;;;;;5083004;28;20039;-75
2023/09/20 07:43:05;;;;;;;8.98;5.25;;;;;;;;;;5083383;28;20079;-77
2023/09/20 07:45:31;;;;;;;10.90;6.47;;;;;;;;;;5083005;28;20034;-77
2023/09/20 07:47:57;;;;;;;9.52;6.18;;;;;;;;;;5082487;28;20114;-76
2023/09/20 07:50:25;;;;;;;8.25;5.95;;;;;;;;;;5083462;28;20084;-75
2023/09/20 07:52:50;;;;;;;12.52;5.43;;;;;;;;;;5083236;28;20042;-75
2023/09/20 07:55:17;;;;;;;8.48;5.53;;;;;;;;;;5083031;28;20028;-76
2023/09/20 07:57:42;;;;;;;15.27;6.95;;;;;;;;;;5083561;28;20020;-76
2023/09/20 08:00:10;;;;;;;12.48;6.40;;;;;;;;;;5082525;28;20043;-77
2023/09/20 08:02:37;;;;;;;17.00;6.25;;;;;;;;;;5082946;28;20066;-77
2023/09/20 08:05:02;;;;;;;8.40;5.85;;;;;;;;;;5083044;28;20032;-75
2023/09/20 08:07:27;;;;;;;8.43;6.57;;;;;;;;;;5081508;28;20358;-76
2023/09/20 08:09:53;;;;;;;6.50;5.68;;;;;;;;;;5082410;28;20491;-77
2023/09/20 08:12:18;;;;;;;8.48;6.53;;;;;;;;;;5082204;28;20020;-76
2023/09/20 08:14:43;;;;;;;11.88;6.25;;;;;;;;;;5081953;28;20043;-75
2023/09/20 08:19:53;;;;;;;11.20;7.10;;;;;;;;;;5081351;28;20043;-74
2023/09/20 08:22:20;;;;;;;11.85;6.63;;;;;;;;;;5082226;28;20016;-74
2023/09/20 09:00:29;;;;;;;20.10;9.45;;;;;;;;;;5083905;28;20101;-74
2023/09/20 09:02:57;;;;;;;17.38;7.85;;;;;;;;;;5081761;28;20576;-75
2023/09/20 09:05:23;;;;;;;14.73;8.60;;;;;;;;;;5082588;28;20039;-75
2023/09/20 09:07:49;;;;;;;11.13;7.72;;;;;;;;;;5083067;28;20020;-76
2023/09/20 09:10:14;;;;;;;10.30;7.07;;;;;;;;;;5082057;28;20354;-76
2023/09/20 09:12:41;;;;;;;15.88;8.57;;;;;;;;;;5083270;28;20074;-76
2023/09/20 09:15:08;;;;;;;14.52;8.10;;;;;;;;;;5082113;28;20058;-74
2023/09/20 09:17:37;;;;;;;13.77;8.18;;;;;;;;;;5081599;28;20328;-77
2023/09/20 09:20:05;;;;;;;12.55;7.50;;;;;;;;;;5081554;28;20036;-77
2023/09/20 09:22:33;;;;;;;15.05;8.43;;;;;;;;;;5083124;28;20028;-75
2023/09/20 09:24:59;;;;;;;13.70;7.63;;;;;;;;;;5081839;28;20024;-78
2023/09/20 09:27:24;;;;;;;15.27;6.97;;;;;;;;;;5084558;28;20042;-78
2023/09/20 09:29:50;;;;;;;17.77;7.82;;;;;;;;;;5085347;28;20054;-77
2023/09/20 09:32:15;;;;;;;13.45;6.75;;;;;;;;;;5085395;28;20055;-77
2023/09/20 09:34:43;;;;;;;13.10;7.05;;;;;;;;;;5087125;28;20056;-75
2023/09/20 09:37:10;;;;;;;22.85;7.85;;;;;;;;;;5085942;28;20016;-75
2023/09/20 09:39:36;;;;;;;18.90;8.00;;;;;;;;;;5085647;28;20046;-75
2023/09/20 09:42:02;;;;;;;12.05;7.30;;;;;;;;;;5085042;28;20130;-76
2023/09/20 09:44:27;;;;;;;13.80;7.05;;;;;;;;;;5085236;28;20038;-74
2023/09/20 09:46:54;;;;;;;11.45;7.05;;;;;;;;;;5085411;28;20027;-77
2023/09/20 09:49:19;;;;;;;11.82;6.82;;;;;;;;;;5084873;28;20150;-76
2023/09/20 09:51:46;;;;;;;11.63;6.72;;;;;;;;;;5085177;28;20173;-75
2023/09/20 09:54:12;;;;;;;10.98;6.28;;;;;;;;;;5084091;28;20439;-76
2023/09/20 09:56:38;;;;;;;11.50;6.30;;;;;;;;;;5084645;28;20031;-76
2023/09/20 09:59:05;;;;;;;11.40;6.07;;;;;;;;;;5085506;28;20028;-75
2023/09/20 10:01:36;;;;;;;8.25;5.57;;;;;;;;;;5083905;28;20027;-77
2023/09/20 10:04:05;;;;;;;12.52;6.53;;;;;;;;;;5084476;28;20036;-76
2023/09/20 10:06:33;;;;;;;9.05;5.70;;;;;;;;;;5083677;28;20439;-76
2023/09/20 10:09:00;;;;;;;6.93;5.32;;;;;;;;;;5084900;28;20032;-75
2023/09/20 10:11:25;;;;;;;13.10;6.00;;;;;;;;;;5085017;28;20092;-76
2023/09/20 10:13:51;;;;;;;10.30;5.70;;;;;;;;;;5084226;28;20071;-76
2023/09/20 10:16:17;;;;;;;9.75;5.20;;;;;;;;;;5084359;28;20104;-78
2023/09/20 10:18:54;;;;;;;10.98;5.35;;;;;;;;;;5083834;28;20510;-76
2023/09/20 10:21:24;;;;;;;12.50;5.78;;;;;;;;;;5084077;28;20031;-79
2023/09/20 10:23:55;;;;;;;8.35;5.60;;;;;;;;;;5083914;28;20031;-75
2023/09/20 10:26:21;;;;;;;13.82;4.80;;;;;;;;;;5099943;28;20034;-76
2023/09/20 10:28:47;;;;;;;8.23;4.63;;;;;;;;;;5084772;28;20039;-76
2023/09/20 10:31:17;;;;;;;6.20;4.50;;;;;;;;;;5084908;28;20036;-77
2023/09/20 10:33:45;;;;;;;8.93;4.70;;;;;;;;;;5084210;28;20026;-76
2023/09/20 10:36:22;;;;;;;9.32;4.78;;;;;;;;;;5083456;28;20024;-76
2023/09/20 10:38:48;;;;;;;8.18;6.05;;;;;;;;;;5084654;28;20110;-77
2023/09/20 10:41:16;;;;;;;7.65;5.50;;;;;;;;;;5083289;28;20134;-75
2023/09/20 10:43:43;;;;;;;9.00;4.97;;;;;;;;;;5086253;28;20127;-77
2023/09/20 10:46:09;;;;;;;7.78;6.00;;;;;;;;;;5086173;28;20035;-75
2023/09/20 10:48:39;;;;;;;5.80;4.93;;;;;;;;;;5083867;28;20046;-74
2023/09/20 10:51:06;;;;;;;9.77;6.18;;;;;;;;;;5083375;28;20537;-76
2023/09/20 10:53:44;;;;;;;13.65;6.80;;;;;;;;;;5084879;28;20066;-74
2023/09/20 10:56:10;;;;;;;12.82;5.40;;;;;;;;;;5083579;28;20035;-77
2023/09/20 10:58:37;;;;;;;8.43;5.55;;;;;;;;;;5085066;28;20031;-75
2023/09/20 11:01:03;;;;;;;10.32;5.32;;;;;;;;;;5084852;28;20474;-77
2023/09/20 11:03:29;;;;;;;9.48;4.90;;;;;;;;;;5083742;28;20035;-78
2023/09/20 11:05:55;;;;;;;6.88;4.97;;;;;;;;;;5084607;28;20016;-75
2023/09/20 11:08:21;;;;;;;9.00;5.60;;;;;;;;;;5084902;28;20028;-76
2023/09/20 11:10:47;;;;;;;11.32;5.75;;;;;;;;;;5083532;28;20032;-76
2023/09/20 11:13:14;;;;;;;12.40;5.68;;;;;;;;;;5084698;28;20038;-75
2023/09/20 11:15:43;;;;;;;9.98;6.07;;;;;;;;;;5083311;28;20020;-77
2023/09/20 11:18:09;;;;;;;9.25;5.68;;;;;;;;;;5083000;28;20032;-77
2023/09/20 11:20:34;;;;;;;11.55;5.95;;;;;;;;;;5085009;28;20031;-75
2023/09/20 11:23:03;;;;;;;9.98;6.18;;;;;;;;;;5084258;28;20035;-75
2023/09/20 11:25:29;;;;;;;;;;;;;;;;;;5085801;28;20028;-75
2023/09/20 11:27:55;;;;;;;8.15;5.60;;;;;;;;;;5083958;28;19919;-75
2023/09/20 11:30:24;;;;;;;10.30;5.57;;;;;;;;;;5083319;28;20047;-75
2023/09/20 11:32:49;;;;;;;11.45;5.60;;;;;;;;;;5083898;28;20028;-76
2023/09/20 11:35:30;;;;;;;11.82;6.22;;;;;;;;;;5082152;28;20043;-75
2023/09/20 11:37:56;;;;;;;9.68;6.00;;;;;;;;;;5082769;28;20101;-75
2023/09/20 11:40:21;;;;;;;13.20;6.13;;;;;;;;;;5069872;28;20381;-78
2023/09/20 11:42:46;;;;;;;8.50;5.93;;;;;;;;;;5064326;28;20044;-76
2023/09/20 11:45:12;;;;;;;13.00;6.47;;;;;;;;;;5068063;28;20028;-78
2023/09/20 11:47:42;;;;;;;11.13;6.53;;;;;;;;;;5067872;28;20119;-75
2023/09/20 11:50:12;;;;;;;8.77;5.72;;;;;;;;;;5073125;28;20111;-78
2023/09/20 11:52:38;;;;;;;11.30;6.38;;;;;;;;;;5065750;28;20355;-78
2023/09/20 11:55:04;;;;;;;11.07;6.53;;;;;;;;;;5067884;28;20023;-76
2023/09/20 11:57:35;;;;;;;10.27;6.53;;;;;;;;;;5066679;28;20020;-77
2023/09/20 12:00:02;;;;;;;14.65;6.40;;;;;;;;;;5066822;28;20043;-75
2023/09/20 12:02:28;;;;;;;11.95;6.70;;;;;;;;;;5083607;28;20028;-75
2023/09/20 12:04:54;;;;;;;13.50;6.97;;;;;;;;;;5067022;28;20043;-76
2023/09/20 12:07:19;;;;;;;14.82;7.43;;;;;;;;;;5067594;28;20024;-76
2023/09/20 12:09:44;;;;;;;13.88;7.38;;;;;;;;;;5067194;28;20458;-76
2023/09/20 12:12:10;;;;;;;12.25;7.85;;;;;;;;;;5065833;28;20020;-77
2023/09/20 12:14:37;;;;;;;11.82;7.07;;;;;;;;;;5067040;28;20128;-74
2023/09/20 12:17:04;;;;;;;12.07;7.55;;;;;;;;;;5067987;28;20107;-77
2023/09/20 12:19:29;;;;;;;14.57;7.78;;;;;;;;;;5066955;28;20082;-75
2023/09/20 12:21:55;;;;;;;12.63;7.45;;;;;;;;;;5067236;28;20458;-76
2023/09/20 12:24:22;;;;;;;20.00;8.93;;;;;;;;;;5066890;28;20108;-74
2023/09/20 12:26:48;;;;;;;10.10;7.43;;;;;;;;;;5066061;28;20443;-76
2023/09/20 12:29:14;;;;;;;14.90;7.68;;;;;;;;;;5067331;28;20046;-77
2023/09/20 12:31:40;;;;;;;16.95;9.27;;;;;;;;;;5066879;28;20085;-74
2023/09/20 12:34:06;;;;;;;13.43;8.65;;;;;;;;;;5065065;28;20414;-75
2023/09/20 12:36:32;;;;;;;10.57;8.48;;;;;;;;;;5066975;28;20112;-75
2023/09/20 12:39:01;;;;;;;13.57;8.75;;;;;;;;;;5065329;28;20131;-76
2023/09/20 12:41:26;;;;;;;;;;;;;;;;;;5020288;28;1329184;-76
2023/09/20 12:43:51;;;;;;;12.63;8.63;;;;;;;;;;5069392;28;19934;-75
2023/09/20 12:46:17;;;;;;;11.68;7.70;;;;;;;;;;5075588;28;20036;-76
2023/09/20 12:48:44;;;;;;;27.25;14.38;;;;;;;;;;5068402;28;20024;-74
2023/09/20 12:51:10;;;;;;;18.48;9.80;;;;;;;;;;5068008;28;20604;-76
2023/09/20 12:53:35;;;;;;;13.43;7.90;;;;;;;;;;5069031;28;21411;-77
2023/09/20 12:56:04;;;;;;;12.18;7.20;;;;;;;;;;5082466;28;20116;-76
2023/09/20 12:58:29;;;;;;;13.95;7.55;;;;;;;;;;5081504;28;20024;-77
2023/09/20 13:00:55;;;;;;;12.95;7.05;;;;;;;;;;5082098;28;20347;-76
2023/09/20 13:03:20;;;;;;;14.45;7.28;;;;;;;;;;5084841;28;20038;-75
2023/09/20 13:05:45;;;;;;;13.15;7.45;;;;;;;;;;5086546;28;20135;-76
2023/09/20 13:08:13;;;;;;;14.40;7.40;;;;;;;;;;5086618;28;20108;-76
2023/09/20 13:10:38;;;;;;;14.57;7.88;;;;;;;;;;5086828;28;20031;-78
2023/09/20 13:13:08;;;;;;;15.52;7.38;;;;;;;;;;5086325;28;20020;-75
2023/09/20 13:15:33;;;;;;;9.70;6.30;;;;;;;;;;5073944;28;20046;-75
2023/09/20 13:18:01;;;;;;;11.85;6.25;;;;;;;;;;5071701;28;20391;-77
2023/09/20 13:20:27;;;;;;;11.27;6.20;;;;;;;;;;5083295;28;20143;-76
2023/09/20 13:22:54;;;;;;;14.10;6.70;;;;;;;;;;5084827;28;20020;-78
2023/09/20 13:25:21;;;;;;;9.43;6.15;;;;;;;;;;5083496;28;20030;-75
2023/09/20 13:27:47;;;;;;;9.75;6.70;;;;;;;;;;5082886;28;20043;-78
2023/09/20 13:30:13;;;;;;;9.10;6.32;;;;;;;;;;5068530;28;20028;-76
2023/09/20 13:32:39;;;;;;;9.23;6.32;;;;;;;;;;5069198;28;20036;-76
2023/09/20 13:35:08;;;;;;;14.10;6.03;;;;;;;;;;5070340;28;20084;-76
2023/09/20 13:37:34;;;;;;;10.05;6.50;;;;;;;;;;5067769;28;20103;-79
2023/09/20 13:40:00;;;;;;;9.15;5.32;;;;;;;;;;5085016;28;20035;-79
2023/09/20 13:42:25;;;;;;;9.65;5.95;;;;;;;;;;5086225;28;20050;-84
2023/09/20 13:44:50;;;;;;;10.68;6.03;;;;;;;;;;5084825;28;20028;-79
2023/09/20 13:47:18;;;;;;;9.57;5.88;;;;;;;;;;5079022;28;20024;-77
2023/09/20 13:49:43;;;;;;;8.60;5.60;;;;;;;;;;5069383;28;20032;-78
2023/09/20 13:52:10;;;;;;;7.85;5.65;;;;;;;;;;5068390;28;20463;-77
2023/09/20 13:54:36;;;;;;;11.07;5.85;;;;;;;;;;5067956;28;20082;-78
2023/09/20 13:57:01;;;;;;;9.52;6.22;;;;;;;;;;5067379;28;20443;-76
2023/09/20 13:59:30;;;;;;;8.23;6.05;;;;;;;;;;5067399;28;20115;-77
2023/09/20 14:01:58;;;;;;;11.40;5.45;;;;;;;;;;5076734;28;20020;-77
2023/09/20 14:04:25;;;;;;;10.17;5.87;;;;;;;;;;5083566;28;20081;-75
2023/09/20 14:06:50;;;;;;;9.82;5.45;;;;;;;;;;5067110;28;20032;-77
2023/09/20 14:09:15;;;;;;;9.02;5.65;;;;;;;;;;5074777;28;20027;-76
2023/09/20 14:11:41;;;;;;;10.10;5.47;;;;;;;;;;5071347;28;20104;-77
2023/09/20 14:14:06;;;;;;;9.10;5.95;;;;;;;;;;5068250;28;20454;-76
2023/09/20 14:16:34;;;;;;;12.52;6.00;;;;;;;;;;5068902;28;20081;-77
2023/09/20 14:18:59;;;;;;;8.23;5.38;;;;;;;;;;5068212;28;20020;-77
2023/09/20 14:21:25;;;;;;;13.57;6.10;;;;;;;;;;5068192;28;20032;-79
2023/09/20 14:23:50;;;;;;;10.23;6.68;;;;;;;;;;5069680;28;20367;-73
2023/09/20 14:26:15;;;;;;;9.75;6.07;;;;;;;;;;5068806;28;20063;-75
2023/09/20 14:28:42;;;;;;;8.52;5.90;;;;;;;;;;5073818;28;20062;-75
2023/09/20 14:31:14;;;;;;;9.43;5.85;;;;;;;;;;5076944;28;20028;-77
2023/09/20 14:33:39;;;;;;;7.70;5.88;;;;;;;;;;5077063;28;20039;-78
2023/09/20 14:36:04;;;;;;;10.50;7.45;;;;;;;;;;5083640;28;20028;-79
2023/09/20 14:38:30;;;;;;;15.90;6.90;;;;;;;;;;5082225;28;20032;-77
2023/09/20 14:40:56;;;;;;;10.63;6.15;;;;;;;;;;5075558;28;20116;-77
2023/09/20 14:43:22;;;;;;;10.25;6.07;;;;;;;;;;5068078;28;20056;-78
2023/09/20 14:45:47;;;;;;;14.52;6.03;;;;;;;;;;5067698;28;20416;-76
2023/09/20 14:48:14;;;;;;;13.52;6.10;;;;;;;;;;5068697;28;20505;-74
2023/09/20 14:50:40;;;;;;;12.35;6.35;;;;;;;;;;5068105;28;20110;-77
2023/09/20 14:53:06;;;;;;;9.60;5.90;;;;;;;;;;5067113;28;20186;-76
2023/09/20 14:55:33;;;;;;;11.25;5.50;;;;;;;;;;5068342;28;20040;-78
2023/09/20 14:58:01;;;;;;;9.60;5.80;;;;;;;;;;5068019;28;20089;-77
2023/09/20 15:00:28;;;;;;;8.82;5.53;;;;;;;;;;5067524;28;20032;-76
2023/09/20 15:02:55;;;;;;;11.32;5.88;;;;;;;;;;5068503;28;20085;-76
2023/09/20 15:05:20;;;;;;;10.63;5.97;;;;;;;;;;5069367;28;20646;-78
2023/09/20 15:07:49;;;;;;;9.00;5.35;;;;;;;;;;5067221;28;20032;-78
2023/09/20 15:10:16;;;;;;;;;;;;;;;;;;5067960;28;20038;-79